createdAt,value
2022-12-19T00:00:02.430Z,38.30
2022-12-19T00:02:29.361Z,36.70
2022-12-19T00:04:56.188Z,39.65
2022-12-19T00:07:23.057Z,39.53
2022-12-19T00:09:49.898Z,35.28
2022-12-19T00:12:19.297Z,35.45
2022-12-19T00:14:47.504Z,34.95
2022-12-19T00:17:14.418Z,38.08
2022-12-19T00:19:41.217Z,36.17
2022-12-19T00:22:11.133Z,34.95
2022-12-19T00:24:38.267Z,35.03
2022-12-19T00:27:05.341Z,35.67
2022-12-19T00:29:32.327Z,36.13
2022-12-19T00:31:59.198Z,35.58
2022-12-19T00:34:26.158Z,34.88
2022-12-19T00:36:52.912Z,35.47
2022-12-19T00:39:19.847Z,35.70
2022-12-19T00:41:46.741Z,32.15
2022-12-19T00:44:16.598Z,32.78
2022-12-19T00:46:45.183Z,32.97
2022-12-19T00:49:19.856Z,33.92
2022-12-19T00:51:46.738Z,36.70
2022-12-19T00:54:13.557Z,34.65
2022-12-19T00:56:41.829Z,37.97
2022-12-19T00:59:09.357Z,33.63
2022-12-19T01:01:40.623Z,33.80
2022-12-19T01:04:28.186Z,35.30
2022-12-19T01:06:56.650Z,34.63
2022-12-19T01:09:29.037Z,35.10
2022-12-19T01:12:14.418Z,33.50
2022-12-19T01:14:41.297Z,32.38
2022-12-19T01:17:08.086Z,34.22
2022-12-19T01:19:38.980Z,34.28
2022-12-19T01:22:09.038Z,34.92
2022-12-19T01:24:36.385Z,35.50
2022-12-19T01:27:03.217Z,35.53
2022-12-19T01:29:30.045Z,33.75
2022-12-19T01:31:58.345Z,33.67
2022-12-19T01:34:25.256Z,33.60
2022-12-19T01:36:52.097Z,32.65
2022-12-19T01:39:18.899Z,32.75
2022-12-19T01:41:45.667Z,31.65
2022-12-19T01:44:12.479Z,34.53
2022-12-19T01:46:46.678Z,31.65
2022-12-19T01:49:25.388Z,33.15
2022-12-19T01:51:56.036Z,33.38
2022-12-19T01:54:39.107Z,33.35
2022-12-19T01:57:10.847Z,33.08
2022-12-19T01:59:42.923Z,34.40
2022-12-19T02:02:31.440Z,34.50
2022-12-19T02:04:58.491Z,36.30
2022-12-19T02:07:26.703Z,37.90
2022-12-19T02:09:57.885Z,36.92
2022-12-19T02:12:30.287Z,37.38
2022-12-19T02:15:03.253Z,38.70
2022-12-19T02:17:36.036Z,37.95
2022-12-19T02:20:17.536Z,38.50
2022-12-19T02:23:02.603Z,37.85
2022-12-19T02:25:56.547Z,36.88
2022-12-19T02:28:45.638Z,37.03
2022-12-19T02:31:19.596Z,36.38
2022-12-19T02:34:15.761Z,35.83
2022-12-19T02:36:51.107Z,35.35
2022-12-19T02:39:42.449Z,31.90
2022-12-19T02:42:14.590Z,32.33
2022-12-19T02:44:51.179Z,33.88
2022-12-19T02:47:21.246Z,32.20
2022-12-19T02:49:48.545Z,32.20
2022-12-19T02:52:21.492Z,34.10
2022-12-19T02:54:53.632Z,32.30
2022-12-19T02:57:28.122Z,33.70
2022-12-19T03:00:06.587Z,34.58
2022-12-19T03:03:11.248Z,32.78
2022-12-19T03:06:24.009Z,30.52
2022-12-19T03:09:16.635Z,32.10
2022-12-19T03:11:47.055Z,31.73
2022-12-19T03:14:19.063Z,33.40
2022-12-19T03:16:46.120Z,32.55
2022-12-19T03:19:14.891Z,32.75
2022-12-19T03:21:49.188Z,32.92
2022-12-19T03:24:18.067Z,33.35
2022-12-19T03:26:56.370Z,31.33
2022-12-19T03:29:36.267Z,34.03
2022-12-19T03:32:07.947Z,32.50
2022-12-19T03:34:50.453Z,31.25
2022-12-19T03:37:21.333Z,37.03
2022-12-19T03:39:53.196Z,34.35
2022-12-19T03:42:49.452Z,34.25
2022-12-19T03:45:24.233Z,33.50
2022-12-19T03:48:01.834Z,34.85
2022-12-19T03:50:37.504Z,36.70
2022-12-19T03:53:42.525Z,29.65
2022-12-19T03:56:30.224Z,36.78
2022-12-19T03:59:13.585Z,37.85
2022-12-19T04:01:41.849Z,38.17
2022-12-19T04:04:12.783Z,40.00
2022-12-19T04:06:40.764Z,41.03
2022-12-19T04:09:09.087Z,41.17
2022-12-19T04:11:44.264Z,43.88
2022-12-19T04:14:18.562Z,44.83
2022-12-19T04:17:10.045Z,43.38
2022-12-19T04:19:45.116Z,41.25
2022-12-19T04:22:38.110Z,40.88
2022-12-19T04:25:13.210Z,39.63
2022-12-19T04:27:43.563Z,42.72
2022-12-19T04:30:14.715Z,40.33
2022-12-19T04:32:47.140Z,41.22
2022-12-19T04:35:14.665Z,37.58
2022-12-19T04:37:41.706Z,38.22
2022-12-19T04:40:10.330Z,40.03
2022-12-19T04:42:37.231Z,40.15
2022-12-19T04:45:05.378Z,35.58
2022-12-19T04:47:32.534Z,29.55
2022-12-19T04:49:59.379Z,27.15
2022-12-19T04:52:26.229Z,27.55
2022-12-19T04:54:53.169Z,25.50
2022-12-19T04:57:20.254Z,31.60
2022-12-19T04:59:47.205Z,22.65
2022-12-19T05:02:14.497Z,22.02
2022-12-19T05:04:41.595Z,24.42
2022-12-19T05:07:08.755Z,24.92
2022-12-19T05:09:40.540Z,25.75
2022-12-19T05:12:07.829Z,24.30
2022-12-19T05:14:34.842Z,26.35
2022-12-19T05:17:02.086Z,23.52
2022-12-19T05:19:29.093Z,23.65
2022-12-19T05:21:55.976Z,25.40
2022-12-19T05:24:23.209Z,24.17
2022-12-19T05:26:50.091Z,26.30
2022-12-19T05:29:17.599Z,24.10
2022-12-19T05:31:45.020Z,27.15
2022-12-19T05:34:12.308Z,25.77
2022-12-19T05:36:39.358Z,26.90
2022-12-19T05:39:06.763Z,27.30
2022-12-19T05:41:33.854Z,26.27
2022-12-19T05:44:00.809Z,25.70
2022-12-19T05:46:27.884Z,25.40
2022-12-19T05:48:56.586Z,27.73
2022-12-19T05:51:24.245Z,26.42
2022-12-19T05:53:51.821Z,23.85
2022-12-19T05:56:22.453Z,25.02
2022-12-19T05:58:50.405Z,25.30
2022-12-19T06:01:24.068Z,24.88
2022-12-19T06:03:52.107Z,24.58
2022-12-19T06:06:24.749Z,24.52
2022-12-19T06:08:59.437Z,26.40
2022-12-19T06:11:27.526Z,23.45
2022-12-19T06:13:54.667Z,25.05
2022-12-19T06:16:23.303Z,24.67
2022-12-19T06:18:50.899Z,24.95
2022-12-19T06:21:23.480Z,25.45
2022-12-19T06:23:51.150Z,25.17
2022-12-19T06:26:20.549Z,24.58
2022-12-19T06:28:49.216Z,24.75
2022-12-19T06:31:16.795Z,28.13
2022-12-19T06:33:43.766Z,28.30
2022-12-19T06:36:17.383Z,33.67
2022-12-19T06:38:44.374Z,29.73
2022-12-19T06:41:30.769Z,32.90
2022-12-19T06:44:04.532Z,29.83
2022-12-19T06:46:32.206Z,32.53
2022-12-19T06:48:59.539Z,29.33
2022-12-19T06:51:27.056Z,33.53
2022-12-19T06:53:56.039Z,26.77
2022-12-19T06:56:25.067Z,27.20
2022-12-19T06:58:52.104Z,26.95
2022-12-19T07:01:39.735Z,27.20
2022-12-19T07:04:09.377Z,29.20
2022-12-19T07:06:36.379Z,29.63
2022-12-19T07:09:03.616Z,35.75
2022-12-19T07:11:30.565Z,25.63
2022-12-19T07:13:57.564Z,25.77
2022-12-19T07:16:29.311Z,24.48
2022-12-19T07:18:56.440Z,24.15
2022-12-19T07:21:24.210Z,25.77
2022-12-19T07:23:51.547Z,26.58
2022-12-19T07:26:19.909Z,27.98
2022-12-19T07:28:46.919Z,25.98
2022-12-19T07:31:15.405Z,26.63
2022-12-19T07:33:45.875Z,23.58
2022-12-19T07:36:12.952Z,21.88
2022-12-19T07:38:40.067Z,22.77
2022-12-19T07:41:07.155Z,24.17
2022-12-19T07:43:34.101Z,23.63
2022-12-19T07:46:01.798Z,23.75
2022-12-19T07:48:31.043Z,23.27
2022-12-19T07:50:58.035Z,24.10
2022-12-19T07:53:25.781Z,27.73
2022-12-19T07:55:53.503Z,21.52
2022-12-19T07:58:20.441Z,24.65
2022-12-19T08:00:57.663Z,24.48
2022-12-19T08:03:25.916Z,25.30
2022-12-19T08:05:52.978Z,22.48
2022-12-19T08:08:20.768Z,27.92
2022-12-19T08:10:47.735Z,27.48
2022-12-19T08:13:14.810Z,26.67
2022-12-19T08:15:43.061Z,28.05
2022-12-19T08:18:11.379Z,53.85
2022-12-19T08:20:42.488Z,29.58
2022-12-19T08:23:09.871Z,28.65
2022-12-19T08:25:39.994Z,32.13
2022-12-19T08:28:07.242Z,35.83
2022-12-19T08:30:34.339Z,41.90
2022-12-19T08:33:01.364Z,30.83
2022-12-19T08:35:28.589Z,37.78
2022-12-19T08:37:56.894Z,30.20
2022-12-19T08:40:24.393Z,30.92
2022-12-19T08:42:52.425Z,35.35
2022-12-19T08:45:19.759Z,27.35
2022-12-19T08:47:46.689Z,29.67
2022-12-19T08:50:14.483Z,26.67
2022-12-19T08:52:43.217Z,26.83
2022-12-19T08:55:10.967Z,30.13
2022-12-19T08:57:39.035Z,28.67
2022-12-19T09:00:08.656Z,21.73
2022-12-19T09:02:39.630Z,21.80
2022-12-19T09:06:03.173Z,22.77
2022-12-19T09:07:55.460Z,24.95
2022-12-19T09:10:22.432Z,31.00
2022-12-19T09:12:55.792Z,22.42
2022-12-19T09:15:25.285Z,22.17
2022-12-19T09:17:52.187Z,20.88
2022-12-19T09:20:23.231Z,19.95
2022-12-19T09:22:50.860Z,19.20
2022-12-19T09:25:18.042Z,21.13
2022-12-19T09:28:25.302Z,23.38
2022-12-19T09:33:03.128Z,21.27
2022-12-19T09:35:30.657Z,22.05
2022-12-19T09:38:00.266Z,19.60
2022-12-19T09:40:31.681Z,19.52
2022-12-19T09:43:12.461Z,21.48
2022-12-19T09:45:57.832Z,20.33
2022-12-19T09:48:25.776Z,25.45
2022-12-19T09:51:35.958Z,24.83
2022-12-19T09:54:25.097Z,21.92
2022-12-19T09:56:58.487Z,19.75
2022-12-19T09:59:49.643Z,21.98
2022-12-19T10:02:44.473Z,19.10
2022-12-19T10:05:34.855Z,22.15
2022-12-19T10:08:10.374Z,24.60
2022-12-19T10:12:41.313Z,22.00
2022-12-19T10:14:12.161Z,22.70
2022-12-19T10:17:23.179Z,24.10
2022-12-19T10:20:03.413Z,22.50
2022-12-19T10:22:55.592Z,20.48
2022-12-19T10:25:31.847Z,22.50
2022-12-19T10:28:10.161Z,21.92
2022-12-19T10:30:54.034Z,18.98
2022-12-19T10:33:36.296Z,20.35
2022-12-19T10:36:13.560Z,22.25
2022-12-19T10:38:52.734Z,23.33
2022-12-19T10:41:26.312Z,23.33
2022-12-19T10:44:09.240Z,22.63
2022-12-19T10:46:51.531Z,21.85
2022-12-19T10:49:29.062Z,23.25
2022-12-19T10:52:04.776Z,21.83
2022-12-19T10:54:38.539Z,20.83
2022-12-19T10:57:30.601Z,23.75
2022-12-19T11:00:20.572Z,22.70
2022-12-19T11:02:51.906Z,15.75
2022-12-19T11:05:31.449Z,18.70
2022-12-19T11:08:16.139Z,22.17
2022-12-19T11:13:34.848Z,21.13
2022-12-19T11:19:20.499Z,20.45
2022-12-19T11:24:20.562Z,22.17
2022-12-19T11:29:18.862Z,22.98
2022-12-19T11:29:38.303Z,20.95
2022-12-19T11:30:25.643Z,25.58
2022-12-19T11:30:47.997Z,22.02
2022-12-19T11:34:21.548Z,22.15
2022-12-19T11:36:53.006Z,23.73
2022-12-19T11:39:30.238Z,21.52
2022-12-19T11:42:35.058Z,22.27
2022-12-19T11:45:24.974Z,21.90
2022-12-19T11:47:59.024Z,21.20
2022-12-19T11:50:33.199Z,19.75
2022-12-19T11:53:18.600Z,21.80
2022-12-19T11:55:54.929Z,20.30
2022-12-19T11:58:25.485Z,21.58
2022-12-19T12:00:52.425Z,20.25
2022-12-19T12:03:28.400Z,17.10
2022-12-19T12:05:56.715Z,20.83
2022-12-19T12:09:59.353Z,21.85
2022-12-19T12:18:52.560Z,20.85
2022-12-19T12:27:01.885Z,20.73
2022-12-19T12:31:06.474Z,21.67
2022-12-19T12:31:07.991Z,21.73
2022-12-19T12:31:18.283Z,23.83
2022-12-19T12:31:50.447Z,21.75
2022-12-19T12:32:04.003Z,21.40
2022-12-19T12:35:38.342Z,22.83
2022-12-19T12:40:08.226Z,20.95
2022-12-19T12:42:41.841Z,23.23
2022-12-19T12:45:31.781Z,20.73
2022-12-19T12:47:58.919Z,22.02
2022-12-19T12:50:27.524Z,19.02
2022-12-19T12:53:02.197Z,19.77
2022-12-19T12:55:49.418Z,19.00
2022-12-19T12:58:47.533Z,18.88
2022-12-19T13:01:31.693Z,19.30
2022-12-19T13:04:13.097Z,22.27
2022-12-19T13:06:42.983Z,22.40
2022-12-19T13:09:10.719Z,21.20
2022-12-19T13:12:04.068Z,20.95
2022-12-19T13:14:40.066Z,21.17
2022-12-19T13:17:08.894Z,19.63
2022-12-19T13:20:05.164Z,22.13
2022-12-19T13:22:32.583Z,25.20
2022-12-19T13:25:01.086Z,20.23
2022-12-19T13:28:04.918Z,22.05
2022-12-19T13:31:11.649Z,20.30
2022-12-19T13:33:21.737Z,20.60
2022-12-19T13:39:45.923Z,23.30
2022-12-19T13:39:56.904Z,27.35
2022-12-19T13:42:01.013Z,24.48
2022-12-19T13:44:28.699Z,21.40
2022-12-19T13:46:56.571Z,27.08
2022-12-19T13:49:34.211Z,23.58
2022-12-19T13:52:03.727Z,24.60
2022-12-19T13:54:53.088Z,26.42
2022-12-19T13:57:28.717Z,23.60
2022-12-19T14:00:02.741Z,23.90
2022-12-19T14:02:44.787Z,27.73
2022-12-19T14:06:17.658Z,26.42
2022-12-19T14:08:25.804Z,22.88
2022-12-19T14:11:33.902Z,24.13
2022-12-19T14:14:27.676Z,27.20
2022-12-19T14:17:07.651Z,26.58
2022-12-19T14:19:40.328Z,29.08
2022-12-19T14:22:25.199Z,26.10
2022-12-19T14:25:01.262Z,26.02
2022-12-19T14:28:20.371Z,23.33
2022-12-19T14:31:00.764Z,26.98
2022-12-19T14:33:44.054Z,26.27
2022-12-19T14:36:27.185Z,25.58
2022-12-19T14:39:23.276Z,25.50
2022-12-19T14:42:03.743Z,26.30
2022-12-19T14:52:11.614Z,24.30
2022-12-19T14:52:35.250Z,26.42
2022-12-19T14:54:23.411Z,24.23
2022-12-19T14:54:26.803Z,24.27
2022-12-19T14:56:54.424Z,27.25
2022-12-19T14:59:17.990Z,28.15
2022-12-19T15:01:52.770Z,25.58
2022-12-19T15:04:53.081Z,25.98
2022-12-19T15:07:18.019Z,27.17
2022-12-19T15:11:06.972Z,24.20
2022-12-19T15:14:54.726Z,26.40
2022-12-19T15:16:29.785Z,24.90
2022-12-19T15:18:58.883Z,23.57
2022-12-19T15:21:28.044Z,22.98
2022-12-19T15:23:56.988Z,22.85
2022-12-19T15:26:30.351Z,26.58
2022-12-19T15:28:58.618Z,25.13
2022-12-19T15:31:38.953Z,22.90
2022-12-19T15:34:37.235Z,24.33
2022-12-19T15:37:07.568Z,25.48
2022-12-19T15:39:34.849Z,23.92
2022-12-19T15:42:02.294Z,28.30
2022-12-19T15:44:38.294Z,26.20
2022-12-19T15:47:07.904Z,23.98
2022-12-19T15:49:35.621Z,23.50
2022-12-19T15:52:03.273Z,23.85
2022-12-19T16:00:24.793Z,25.88
2022-12-19T16:03:23.815Z,26.60
2022-12-19T16:05:41.214Z,26.40
2022-12-19T16:08:19.879Z,26.05
2022-12-19T16:11:01.027Z,23.15
2022-12-19T16:13:31.803Z,24.98
2022-12-19T16:15:59.528Z,27.65
2022-12-19T16:18:26.747Z,23.60
2022-12-19T16:20:54.079Z,25.45
2022-12-19T16:23:22.524Z,25.20
2022-12-19T16:25:51.850Z,25.55
2022-12-19T16:28:24.016Z,24.65
2022-12-19T16:30:51.122Z,25.08
2022-12-19T16:33:30.111Z,26.27
2022-12-19T16:36:07.169Z,25.15
2022-12-19T16:38:34.788Z,31.80
2022-12-19T16:41:02.127Z,26.45
2022-12-19T16:43:33.497Z,26.50
2022-12-19T16:46:02.135Z,25.80
2022-12-19T16:48:30.491Z,26.52
2022-12-19T16:50:59.045Z,26.15
2022-12-19T16:53:26.122Z,24.05
2022-12-19T16:55:55.517Z,24.20
2022-12-19T16:58:25.627Z,26.65
2022-12-19T17:00:55.369Z,25.75
2022-12-19T17:03:28.761Z,24.45
2022-12-19T17:05:57.993Z,26.45
2022-12-19T17:08:25.227Z,27.45
2022-12-19T17:10:53.578Z,23.45
2022-12-19T17:13:22.351Z,23.52
2022-12-19T17:15:56.361Z,25.23
2022-12-19T17:18:36.227Z,26.92
2022-12-19T17:21:03.783Z,25.77
2022-12-19T17:26:01.304Z,26.92
2022-12-19T17:28:29.563Z,24.23
2022-12-19T17:30:59.474Z,27.13
2022-12-19T17:33:34.313Z,28.55
2022-12-19T17:36:02.904Z,26.02
2022-12-19T17:38:30.094Z,25.08
2022-12-19T17:40:57.895Z,27.50
2022-12-19T17:43:24.896Z,27.02
2022-12-19T17:45:53.592Z,27.45
2022-12-19T17:48:32.043Z,26.95
2022-12-19T17:51:00.254Z,28.80
2022-12-19T17:53:27.508Z,25.58
2022-12-19T17:55:54.468Z,27.13
2022-12-19T17:58:22.102Z,24.63
2022-12-19T18:00:50.217Z,28.73
2022-12-19T18:03:24.311Z,25.65
2022-12-19T18:05:53.602Z,26.15
2022-12-19T18:08:29.258Z,23.52
2022-12-19T18:10:58.138Z,28.23
2022-12-19T18:13:26.406Z,24.02
2022-12-19T18:15:57.839Z,26.00
2022-12-19T18:18:34.904Z,26.45
2022-12-19T18:21:02.796Z,23.98
2022-12-19T18:23:30.805Z,24.90
2022-12-19T18:26:01.813Z,22.95
2022-12-19T18:28:30.682Z,25.80
2022-12-19T18:31:13.028Z,22.90
2022-12-19T18:33:42.277Z,24.67
2022-12-19T18:36:17.941Z,23.83
2022-12-19T18:38:44.948Z,23.92
2022-12-19T18:41:12.881Z,24.02
2022-12-19T18:43:39.708Z,20.40
2022-12-19T18:46:07.475Z,24.60
2022-12-19T18:48:37.330Z,23.95
2022-12-19T18:51:05.713Z,23.65
2022-12-19T18:53:35.677Z,23.80
2022-12-19T18:56:05.562Z,24.63
2022-12-19T18:58:33.084Z,23.88
2022-12-19T19:01:01.506Z,25.13
2022-12-19T19:03:31.979Z,22.63
2022-12-19T19:05:59.835Z,23.95
2022-12-19T19:08:29.465Z,24.45
2022-12-19T19:10:57.627Z,18.67
2022-12-19T19:13:26.582Z,25.88
2022-12-19T19:16:02.892Z,20.48
2022-12-19T19:18:38.926Z,24.30
2022-12-19T19:21:10.269Z,22.70
2022-12-19T19:23:41.267Z,22.73
2022-12-19T19:26:08.269Z,21.98
2022-12-19T19:28:37.544Z,24.73
2022-12-19T19:31:09.748Z,20.92
2022-12-19T19:33:41.096Z,23.85
2022-12-19T19:36:13.855Z,24.00
2022-12-19T19:38:46.097Z,25.77
2022-12-19T19:41:13.238Z,20.13
2022-12-19T19:43:40.119Z,23.33
2022-12-19T19:46:07.243Z,23.02
2022-12-19T19:48:34.594Z,24.42
2022-12-19T19:51:01.580Z,25.05
2022-12-19T19:53:28.684Z,26.08
2022-12-19T19:56:00.947Z,23.80
2022-12-19T19:58:29.169Z,24.38
2022-12-19T20:00:57.096Z,25.23
2022-12-19T20:03:24.938Z,25.90
2022-12-19T20:06:02.337Z,24.13
2022-12-19T20:08:35.232Z,22.65
2022-12-19T20:11:07.029Z,25.85
2022-12-19T20:13:34.311Z,25.95
2022-12-19T20:16:06.936Z,26.75
2022-12-19T20:18:34.549Z,26.73
2022-12-19T20:21:01.768Z,25.88
2022-12-19T20:23:29.033Z,25.95
2022-12-19T20:26:02.025Z,29.08
2022-12-19T20:28:30.193Z,26.33
2022-12-19T20:30:57.775Z,24.30
2022-12-19T20:33:25.048Z,24.40
2022-12-19T20:35:57.162Z,27.20
2022-12-19T20:38:24.615Z,25.13
2022-12-19T20:40:56.159Z,25.05
2022-12-19T20:43:24.019Z,27.02
2022-12-19T20:45:51.296Z,24.70
2022-12-19T20:48:18.996Z,26.55
2022-12-19T20:50:46.036Z,28.75
2022-12-19T20:53:13.186Z,27.77
2022-12-19T20:55:40.188Z,26.35
2022-12-19T20:58:07.079Z,24.20
2022-12-19T21:00:33.993Z,27.65
2022-12-19T21:03:27.711Z,25.85
2022-12-19T21:05:53.940Z,26.13
2022-12-19T21:08:22.481Z,26.13
2022-12-19T21:10:49.695Z,27.70
2022-12-19T21:13:16.770Z,29.20
2022-12-19T21:15:43.721Z,26.90
2022-12-19T21:18:10.688Z,24.30
2022-12-19T21:20:38.755Z,25.70
2022-12-19T21:23:05.987Z,29.13
2022-12-19T21:25:33.069Z,29.35
2022-12-19T21:27:59.855Z,31.33
2022-12-19T21:30:26.957Z,30.45
2022-12-19T21:32:53.986Z,29.20
2022-12-19T21:35:20.953Z,27.73
2022-12-19T21:37:51.677Z,27.52
2022-12-19T21:40:19.783Z,27.98
2022-12-19T21:42:47.369Z,26.33
2022-12-19T21:45:15.516Z,27.77
2022-12-19T21:47:43.220Z,25.35
2022-12-19T21:50:12.559Z,27.02
2022-12-19T21:52:40.494Z,27.35
2022-12-19T21:55:09.195Z,27.23
2022-12-19T21:57:42.806Z,26.25
2022-12-19T22:00:12.466Z,27.85
2022-12-19T22:02:50.596Z,26.60
2022-12-19T22:05:26.543Z,22.52
2022-12-19T22:07:53.574Z,27.02
2022-12-19T22:10:20.630Z,26.75
2022-12-19T22:12:47.667Z,23.80
2022-12-19T22:15:14.728Z,25.65
2022-12-19T22:17:41.717Z,25.38
2022-12-19T22:20:09.616Z,25.85
2022-12-19T22:22:36.724Z,25.73
2022-12-19T22:25:04.068Z,25.05
2022-12-19T22:27:31.200Z,27.35
2022-12-19T22:29:58.454Z,24.70
2022-12-19T22:33:36.100Z,23.73
2022-12-19T22:36:05.994Z,28.30
2022-12-19T22:38:33.000Z,27.05
2022-12-19T22:41:05.003Z,25.92
2022-12-19T22:43:32.669Z,28.85
2022-12-19T22:45:59.661Z,26.17
2022-12-19T22:48:26.638Z,27.90
2022-12-19T22:50:53.494Z,27.65
2022-12-19T22:53:20.465Z,27.92
2022-12-19T22:55:47.422Z,27.02
2022-12-19T22:58:14.574Z,25.13
2022-12-19T23:00:42.662Z,25.98
2022-12-19T23:03:09.649Z,25.20
2022-12-19T23:05:37.144Z,26.55
2022-12-19T23:08:04.892Z,25.88
2022-12-19T23:10:32.205Z,28.27
2022-12-19T23:12:59.089Z,27.92
2022-12-19T23:15:26.237Z,27.92
2022-12-19T23:17:53.271Z,28.05
2022-12-19T23:20:20.254Z,25.77
2022-12-19T23:22:47.288Z,26.02
2022-12-19T23:25:14.901Z,26.17
2022-12-19T23:27:41.877Z,25.70
2022-12-19T23:30:09.628Z,24.40
2022-12-19T23:32:36.866Z,26.92
2022-12-19T23:35:05.026Z,27.83
2022-12-19T23:37:32.086Z,26.00
2022-12-19T23:39:59.498Z,27.55
2022-12-19T23:42:26.740Z,26.33
2022-12-19T23:44:54.148Z,25.02
2022-12-19T23:47:21.266Z,25.25
2022-12-19T23:49:48.243Z,25.83
2022-12-19T23:52:15.363Z,26.95
2022-12-19T23:54:42.276Z,25.42
2022-12-19T23:57:09.427Z,25.10
2022-12-19T23:59:36.635Z,26.10
